Latest Coastal Weather Observations for Geraldton Airport

IDW60701

Issued at 4:53 am WST Tuesday 19 June 2018 (issued every 10 minutes, with the page automatically refreshed every 10 minutes)

About coastal observations | Map of coastal stations | Coastal observations for WA | Marine services | Other Formats
Station Details ID: 008315 Name: GERALDTON AIRPORT Lat: -28.80 Lon: 114.70 Height: 29.7 m
Data from the previous 72 hours. | See also: Recent months at Geraldton Airport
Date/Time
WST
Temp
°C
Wind Pressure Rain since
9am
mm
Weather Cloud Vis
km
Sea
Height
m
Swell
Dir  Spd
kts
Gust
kts
hPa Trend Height
m
Period
s
Dir
19/04:30am 10.9 NNE 8 9 1024.6 - 0.0 - Partly cloudy 10 - - - -
19/04:00am 10.8 NNE 9 11 1024.4 - 0.0 - - 10 - - - -
19/03:30am 11.0 NNE 8 9 1024.4 - 0.0 - Partly cloudy 10 - - - -
19/03:00am 11.7 NNE 7 9 1024.0 - 0.0 - Cloudy 10 - - - -
19/02:30am 11.7 NNE 8 9 1024.1 - 0.0 - Partly cloudy 10 - - - -
19/02:00am 11.0 NNE 9 10 1023.9 - 0.0 - Partly cloudy 10 - - - -
19/01:30am 11.4 NNE 9 11 1023.6 - 0.0 - Partly cloudy 10 - - - -
19/01:00am 10.8 NNE 7 8 1023.6 - 0.0 - Partly cloudy 10 - - - -
19/12:30am 11.6 NNE 7 8 1023.5 - 0.0 - Partly cloudy 10 - - - -
19/12:00am 10.9 NNE 8 8 1023.4 - 0.0 - Mostly clear 10 - - - -
 
Date/Time
WST
Temp
°C
Wind Pressure Rain since
9am
mm
Weather Cloud Vis
km
Sea
Height
m
Swell
Dir  Spd
kts
Gust
kts
hPa Trend Height
m
Period
s
Dir
18/11:30pm 11.5 NNE 7 9 1023.5 - 0.0 - Partly cloudy 10 - - - -
18/11:00pm 11.8 NNE 7 7 1023.5 - 0.0 - Partly cloudy 10 - - - -
18/10:30pm 11.5 NE 6 9 1023.4 - 0.0 - Partly cloudy 10 - - - -
18/10:00pm 12.6 E 4 5 1023.1 - 0.0 - Partly cloudy 10 - - - -
18/09:30pm 13.8 S 7 9 1023.2 - 0.0 - Partly cloudy 10 - - - -
18/09:00pm 14.4 S 9 12 1023.0 - 0.0 - Partly cloudy 10 - - - -
18/08:30pm 14.5 S 7 9 1022.7 - 0.0 - Partly cloudy 10 - - - -
18/08:00pm 14.4 SSW 8 10 1022.2 - 0.0 - Partly cloudy 10 - - - -
18/07:30pm 14.8 SSW 8 9 1022.1 - 0.0 - Partly cloudy 10 - - - -
18/07:00pm 14.8 S 9 11 1021.4 - 0.0 - Partly cloudy 10 - - - -
18/06:30pm 15.5 SSW 9 11 1021.5 - 0.0 - Partly cloudy 10 - - - -
18/06:00pm 15.7 S 9 13 1021.0 - 0.0 - Cloudy 10 - - - -
18/05:30pm 15.6 SSW 10 12 1020.2 - 0.0 - Partly cloudy 10 - - - -
18/05:00pm 16.3 SSW 9 13 1020.2 - 0.0 - Partly cloudy 10 - - - -
18/04:30pm 16.5 SSW 11 16 1020.3 - 0.0 - Partly cloudy 10 - - - -
18/04:00pm 16.7 SSW 12 17 1020.1 - 0.0 - Partly cloudy 10 - - - -
18/03:30pm 17.1 SSW 11 15 1020.2 - 0.0 - Partly cloudy 10 - - - -
18/03:00pm 16.8 SSW 13 17 1019.5 - 0.0 - Cloudy 10 - - - -
18/02:30pm 17.5 SSW 15 22 1019.4 - 0.0 - Mostly clear 10 - - - -
18/02:00pm 18.2 SW 13 17 1019.5 - 0.0 - Mostly clear 10 - - - -
18/01:30pm 18.3 SW 13 18 1019.1 - 0.0 - Partly cloudy 10 - - - -
18/01:00pm 18.4 SW 16 20 1018.8 - 0.0 - Partly cloudy 10 - - - -
18/12:30pm 19.3 SW 19 24 1018.8 - 0.0 - Partly cloudy 10 - - - -
18/12:00pm 19.1 SW 17 21 1018.8 - 0.0 - Mostly clear 10 - - - -
18/11:30am 18.7 SSW 15 22 1019.0 - 0.0 - Partly cloudy 10 - - - -
18/11:00am 17.5 SSW 13 18 1019.3 - 0.0 - Mostly clear 10 - - - -
18/10:30am 17.6 SW 12 16 1019.3 - 0.0 - Mostly clear 10 - - - -
18/10:00am 17.3 SW 14 18 1019.0 - 0.0 - Mostly clear 10 - - - -
18/09:30am 17.1 SW 13 18 1018.8 - 0.0 - Mostly clear 10 - - - -
18/09:00am 16.4 SW 12 19 1018.3 - 7.0 - Cloudy 10 - - - -
18/08:30am 15.7 SW 20 27 1017.9 - 7.0 Showers Mostly clear 6 - - - -
18/08:22am 16.3 WSW 11 24 1017.9 - 7.0 Showers Mostly clear 9 - - - -
18/08:00am 15.2 W 12 20 1017.7 - 7.0 - Mostly clear 10 - - - -
18/07:30am 16.2 SW 13 23 1017.0 - 6.0 Showers Mostly clear 6 - - - -
18/07:25am 16.7 WSW 9 16 1017.1 - 5.8 Showers Mostly clear 6 - - - -
18/07:00am 17.3 WSW 9 14 1016.5 - 5.8 - Partly cloudy 10 - - - -
18/06:30am 17.0 WSW 8 11 1016.2 - 5.8 - Partly cloudy 10 - - - -
18/06:00am 16.7 WSW 9 11 1015.9 - 5.8 - Cloudy 10 - - - -
18/05:30am 16.8 SW 11 15 1015.8 - 5.8 - Partly cloudy 10 - - - -
18/05:00am 16.6 SW 12 15 1015.5 - 5.8 - Partly cloudy 10 - - - -
18/04:30am 16.5 SW 13 16 1015.3 - 5.6 - Partly cloudy 10 - - - -
18/04:29am 16.5 SW 12 16 1015.3 - 5.6 - Partly cloudy 10 - - - -
18/04:11am 16.7 SW 14 19 1015.1 - 5.2 - Partly cloudy 8 - - - -
18/04:00am 17.0 SW 13 18 1015.1 - 4.2 - Partly cloudy 10 - - - -
18/03:30am 17.3 SW 17 22 1014.5 - 4.2 - Partly cloudy 10 - - - -
18/03:21am 17.5 SW 15 21 1014.4 - 4.2 - Partly cloudy 10 - - - -
18/03:12am 17.6 SW 14 17 1014.4 - 4.2 - Partly cloudy 10 - - - -
18/03:00am 17.7 SW 17 22 1014.2 - 4.2 Recent precip. Cloudy 10 - - - -
18/02:30am 18.0 WSW 15 21 1014.2 - 4.2 - Partly cloudy 10 - - - -
18/02:25am 17.9 WSW 16 21 1014.1 - 4.2 - Partly cloudy 10 - - - -
18/02:03am 18.4 WNW 14 24 1014.2 - 4.2 - Partly cloudy 10 - - - -
18/02:00am 18.3 WNW 14 18 1014.2 - 4.0 - Partly cloudy 10 - - - -
18/01:49am 18.2 WNW 19 29 1014.3 - 4.0 - Partly cloudy 2 - - - -
18/01:41am 18.6 WNW 19 29 1014.2 - 2.2 - Partly cloudy 4 - - - -
18/01:39am 19.5 WNW 17 29 1013.9 - 0.6 - Partly cloudy 10 - - - -
18/01:38am 20.1 WNW 15 23 1013.9 - 0.0 - Partly cloudy 10 - - - -
18/01:30am 19.6 NW 8 13 1013.9 - 0.0 - Partly cloudy 10 - - - -
18/01:00am 17.8 NNW 8 9 1013.7 - 0.0 - Partly cloudy 10 - - - -
18/12:30am 18.9 NNW 10 12 1013.8 - 0.0 - Partly cloudy 10 - - - -
18/12:00am 18.7 NNW 10 13 1014.1 - 0.0 - Mostly cloudy 10 - - - -
 
Date/Time
WST
Temp
°C
Wind Pressure Rain since
9am
mm
Weather Cloud Vis
km
Sea
Height
m
Swell
Dir  Spd
kts
Gust
kts
hPa Trend Height
m
Period
s
Dir
17/11:30pm 18.6 N 10 12 1014.2 - 0.0 - - 10 - - - -
17/11:00pm 18.5 NNW 9 11 1014.5 - 0.0 - Partly cloudy 10 - - - -
17/10:30pm 19.2 NNW 9 13 1014.8 - 0.0 - Partly cloudy 10 - - - -
17/10:00pm 19.3 N 9 11 1014.7 - 0.0 - - 10 - - - -
17/09:30pm 17.7 NNE 8 9 1014.7 - 0.0 - - 10 - - - -
17/09:00pm 18.9 N 8 10 1014.8 - 0.0 - Cloudy 10 - - - -
17/08:30pm 17.0 NNE 6 7 1014.9 - 0.0 - - 10 - - - -
17/08:00pm 16.8 N 5 7 1015.0 - 0.0 - - 10 - - - -
17/07:30pm 16.8 N 6 7 1015.0 - 0.0 - - 10 - - - -
17/07:00pm 16.5 N 5 7 1015.1 - 0.0 - - 10 - - - -
17/06:30pm 17.3 N 6 7 1015.1 - 0.0 - - 10 - - - -
17/06:00pm 18.8 NNE 7 8 1014.7 - 0.0 - Mostly cloudy 10 - - - -
17/05:30pm 20.2 NW 5 6 1014.6 - 0.0 - Partly cloudy 10 - - - -
17/05:00pm 21.0 NW 6 7 1014.6 - 0.0 - Cloudy 10 - - - -
17/04:30pm 21.0 NNW 6 8 1014.7 - 0.0 - Partly cloudy 10 - - - -
17/04:00pm 22.4 NW 11 13 1014.8 - 0.0 - - 10 - - - -
17/03:30pm 22.9 NW 11 13 1014.9 - 0.0 - - 10 - - - -
17/03:00pm 23.3 NW 11 14 1015.1 - 0.0 - - 10 - - - -
17/02:30pm 23.5 WNW 10 13 1015.1 - 0.0 - - 10 - - - -
17/02:00pm 23.8 WNW 10 12 1015.3 - 0.0 - - 10 - - - -
17/01:30pm 23.9 WNW 9 11 1015.6 - 0.0 - - 10 - - - -
17/01:00pm 24.1 WNW 9 11 1016.0 - 0.0 - - 10 - - - -
17/12:30pm 24.9 N 7 9 1016.6 - 0.0 - - 10 - - - -
17/12:00pm 24.0 NNE 10 12 1017.0 - 0.0 - - 10 - - - -
17/11:30am 22.5 NNE 9 11 1017.6 - 0.0 - - 10 - - - -
17/11:00am 21.2 N 9 11 1018.1 - 0.0 - - 10 - - - -
17/10:30am 19.3 NNE 14 18 1018.3 - 0.0 - - 10 - - - -
17/10:00am 17.5 NNE 15 19 1018.6 - 0.0 - - 10 - - - -
17/09:30am 15.6 NNE 17 20 1018.3 - 0.0 - - 10 - - - -
17/09:00am 13.8 NE 17 22 1018.4 - 0.0 - - 10 - - - -
17/08:30am 12.5 NNE 17 21 1018.5 - 0.0 - - 10 - - - -
17/08:00am 11.6 NNE 18 21 1018.4 - 0.0 - - 10 - - - -
17/07:30am 10.1 NNE 18 21 1018.2 - 0.0 - - 10 - - - -
17/07:00am 9.5 NNE 15 18 1018.2 - 0.0 - - 10 - - - -
17/06:30am 9.7 NNE 16 19 1018.2 - 0.0 - - 10 - - - -
17/06:00am 9.7 NE 15 17 1018.3 - 0.0 - - 10 - - - -
17/05:30am 10.0 NE 15 17 1018.3 - 0.0 - - 10 - - - -
17/05:00am 10.2 NNE 16 19 1018.4 - 0.0 - - 10 - - - -
17/04:30am 11.1 NNE 16 19 1018.4 - 0.0 - - 10 - - - -
17/04:00am 10.7 NNE 15 17 1018.4 - 0.0 - - 10 - - - -
17/03:30am 10.9 NNE 14 16 1018.8 - 0.0 - - 10 - - - -
17/03:00am 11.6 NNE 14 16 1018.9 - 0.0 - - 10 - - - -
17/02:30am 11.6 NNE 14 17 1019.2 - 0.0 - - 10 - - - -
17/02:00am 11.3 NNE 14 16 1019.5 - 0.0 - - 10 - - - -
17/01:30am 11.2 NNE 14 16 1019.6 - 0.0 - - 10 - - - -
17/01:00am 11.5 NNE 14 16 1019.7 - 0.0 - - 10 - - - -
17/12:30am 12.0 NNE 14 16 1020.0 - 0.0 - - 10 - - - -
17/12:00am 10.9 NNE 13 14 1020.2 - 0.0 - - 10 - - - -
 
Date/Time
WST
Temp
°C
Wind Pressure Rain since
9am
mm
Weather Cloud Vis
km
Sea
Height
m
Swell
Dir  Spd
kts
Gust
kts
hPa Trend Height
m
Period
s
Dir
16/11:30pm 11.1 NNE 12 13 1020.5 - 0.0 - - 10 - - - -
16/11:00pm 11.6 NNE 12 14 1020.6 - 0.0 - - 10 - - - -
16/10:30pm 11.8 NNE 11 13 1020.7 - 0.0 - - 10 - - - -
16/10:00pm 12.0 NNE 12 14 1020.8 - 0.0 - - 10 - - - -
16/09:30pm 12.0 NNE 11 13 1020.9 - 0.0 - - 10 - - - -
16/09:00pm 12.5 NNE 11 13 1021.1 - 0.0 - - 10 - - - -
16/08:30pm 14.1 NE 13 15 1021.2 - 0.0 - - 10 - - - -
16/08:00pm 14.6 NE 12 14 1021.2 - 0.0 - - 10 - - - -
16/07:30pm 13.1 NNE 9 10 1021.2 - 0.0 - - 10 - - - -
16/07:00pm 11.8 NNE 7 8 1021.0 - 0.0 - - 10 - - - -
16/06:30pm 13.6 NE 4 5 1020.8 - 0.0 - - 10 - - - -
16/06:00pm 15.8 ENE 5 6 1020.5 - 0.0 - - 10 - - - -
16/05:30pm 18.8 NNE 5 5 1020.3 - 0.0 - - 10 - - - -
16/05:00pm 20.5 N 6 7 1020.3 - 0.0 - - 10 - - - -
16/04:30pm 22.0 NNE 7 9 1020.2 - 0.0 - - 10 - - - -
16/04:00pm 22.9 NNE 9 12 1020.3 - 0.0 - - 10 - - - -
16/03:30pm 23.1 NNE 10 14 1020.5 - 0.0 - - 10 - - - -
16/03:00pm 23.2 NNE 11 15 1020.7 - 0.0 - - 10 - - - -
16/02:30pm 23.2 NNE 9 12 1020.8 - 0.0 - - 10 - - - -
16/02:00pm 23.0 NNE 11 16 1020.8 - 0.0 - - 10 - - - -
16/01:30pm 22.7 NNE 12 16 1021.2 - 0.0 - - 10 - - - -
16/01:00pm 22.3 NE 13 16 1021.6 - 0.0 - - 10 - - - -
16/12:30pm 21.7 NE 16 21 1022.1 - 0.0 - - 10 - - - -
16/12:00pm 20.8 NE 16 20 1022.7 - 0.0 - - 10 - - - -
16/11:30am 19.9 NNE 18 22 1023.1 - 0.0 - - 10 - - - -
16/11:00am 19.1 NE 17 23 1023.5 - 0.0 - - 10 - - - -
16/10:30am 18.0 NE 18 22 1023.9 - 0.0 - - 10 - - - -
16/10:00am 16.7 NNE 15 19 1024.3 - 0.0 - - 10 - - - -
16/09:30am 14.6 NE 13 17 1024.4 - 0.0 - - 10 - - - -
16/09:00am 12.5 NE 11 14 1024.6 - 0.0 - - 10 - - - -
16/08:30am 10.6 NNE 11 13 1024.4 - 0.0 - - 10 - - - -
16/08:00am 9.3 NNE 12 15 1024.3 - 0.0 - - 10 - - - -
16/07:30am 8.2 NNE 11 14 1024.2 - 0.0 - - 10 - - - -
16/07:00am 6.9 NNE 9 10 1024.1 - 0.0 - - 10 - - - -
16/06:30am 7.1 NNE 9 10 1023.8 - 0.0 - - 10 - - - -
16/06:00am 7.4 NE 8 10 1023.6 - 0.0 - - 10 - - - -
16/05:30am 8.2 NNE 6 8 1023.4 - 0.0 - - 10 - - - -
16/05:00am 8.0 NNE 4 6 1023.2 - 0.0 - - 10 - - - -

Other Formats:

Comma delimited format used in spreadsheet applications
http://www.bom.gov.au/fwo/IDW60701/IDW60701.94403.axf

JavaScript Object Notation format (JSON) in row-major order
http://www.bom.gov.au/fwo/IDW60701/IDW60701.94403.json